createdAt,value
2022-08-14T00:01:10.175Z,100551.22
2022-08-14T00:03:40.744Z,100551.47
2022-08-14T00:06:25.791Z,100549.28
2022-08-14T00:08:59.271Z,100541.63
2022-08-14T00:11:28.845Z,100535.75
2022-08-14T00:14:01.499Z,100535.09
2022-08-14T00:16:41.783Z,100525.47
2022-08-14T00:19:19.605Z,100526.97
2022-08-14T00:21:51.271Z,100527.97
2022-08-14T00:24:22.959Z,100530.63
2022-08-14T00:26:58.292Z,100517.88
2022-08-14T00:29:40.132Z,100516.59
2022-08-14T00:32:50.651Z,100509.47
2022-08-14T00:35:01.153Z,100511.06
2022-08-14T00:37:31.984Z,100515.94
2022-08-14T00:40:00.349Z,100517.66
2022-08-14T00:42:54.870Z,100513.59
2022-08-14T00:45:18.748Z,100502.28
2022-08-14T00:47:50.525Z,100510.47
2022-08-14T00:50:20.138Z,100508.09
2022-08-14T00:52:54.223Z,100510.97
2022-08-14T00:55:23.389Z,100505.94
2022-08-14T00:58:11.973Z,100506.88
2022-08-14T01:00:50.889Z,100503.66
2022-08-14T01:03:27.558Z,100497.28
2022-08-14T01:06:00.563Z,100492.81
2022-08-14T01:08:57.894Z,100491.03
2022-08-14T01:11:19.766Z,100491.22
2022-08-14T01:13:55.678Z,100490.47
2022-08-14T01:16:31.194Z,100482.81
2022-08-14T01:19:19.767Z,100487.56
2022-08-14T01:21:52.947Z,100477.31
2022-08-14T01:24:24.777Z,100472.00
2022-08-14T01:27:00.338Z,100465.75
2022-08-14T01:29:58.071Z,100458.72
2022-08-14T01:32:23.143Z,100453.50
2022-08-14T01:35:21.220Z,100448.59
2022-08-14T01:37:46.802Z,100441.56
2022-08-14T01:40:37.214Z,100438.91
2022-08-14T01:43:18.849Z,100434.69
2022-08-14T01:46:06.532Z,100425.88
2022-08-14T01:48:37.031Z,100430.72
2022-08-14T01:51:19.958Z,100422.09
2022-08-14T01:53:55.478Z,100417.63
2022-08-14T01:56:36.946Z,100409.84
2022-08-14T01:59:10.231Z,100410.44
2022-08-14T02:01:51.410Z,100410.78
2022-08-14T02:04:40.752Z,100402.09
2022-08-14T02:07:15.976Z,100398.47
2022-08-14T02:09:45.220Z,100400.16
2022-08-14T02:12:26.531Z,100401.69
2022-08-14T02:15:00.458Z,100407.84
2022-08-14T02:17:30.606Z,100407.84
2022-08-14T02:19:58.985Z,100403.81
2022-08-14T02:22:29.206Z,100397.72
2022-08-14T02:25:02.602Z,100401.41
2022-08-14T02:28:23.589Z,100410.06
2022-08-14T02:30:18.338Z,100418.34
2022-08-14T02:32:46.832Z,100416.91
2022-08-14T02:35:18.747Z,100411.97
2022-08-14T02:37:49.073Z,100415.03
2022-08-14T02:40:32.269Z,100410.69
2022-08-14T02:43:02.436Z,100419.69
2022-08-14T02:45:38.285Z,100414.88
2022-08-14T02:49:03.009Z,100415.88
2022-08-14T02:51:01.491Z,100416.16
2022-08-14T02:53:31.296Z,100419.47
2022-08-14T02:56:04.651Z,100419.56
2022-08-14T02:58:52.865Z,100421.66
2022-08-14T03:01:31.535Z,100422.59
2022-08-14T03:04:12.792Z,100415.31
2022-08-14T03:07:06.043Z,100418.22
2022-08-14T03:10:24.426Z,100412.25
2022-08-14T03:12:30.842Z,100414.34
2022-08-14T03:15:03.662Z,100398.69
2022-08-14T03:17:41.023Z,100397.66
2022-08-14T03:20:22.433Z,100392.56
2022-08-14T03:22:51.379Z,100395.28
2022-08-14T03:25:21.728Z,100396.22
2022-08-14T03:27:58.678Z,100395.41
2022-08-14T03:30:39.738Z,100386.66
2022-08-14T03:33:11.065Z,100394.72
2022-08-14T03:36:00.293Z,100385.97
2022-08-14T03:39:16.052Z,100389.00
2022-08-14T03:41:20.377Z,100385.22
2022-08-14T03:44:00.828Z,100384.00
2022-08-14T03:46:52.593Z,100381.25
2022-08-14T03:49:24.280Z,100388.38
2022-08-14T03:51:57.798Z,100383.91
2022-08-14T03:54:26.361Z,100383.81
2022-08-14T03:56:54.842Z,100375.19
2022-08-14T03:59:24.215Z,100386.16
2022-08-14T04:02:01.512Z,100376.72
2022-08-14T04:04:30.726Z,100378.59
2022-08-14T04:07:00.406Z,100376.22
2022-08-14T04:09:29.228Z,100382.38
2022-08-14T04:11:57.986Z,100378.03
2022-08-14T04:14:29.137Z,100373.56
2022-08-14T04:16:57.404Z,100378.88
2022-08-14T04:19:32.758Z,100370.63
2022-08-14T04:22:03.566Z,100363.34
2022-08-14T04:24:38.069Z,100366.47
2022-08-14T04:27:07.360Z,100369.88
2022-08-14T04:29:39.879Z,100353.94
2022-08-14T04:33:01.886Z,100359.34
2022-08-14T04:34:56.883Z,100362.47
2022-08-14T04:37:53.867Z,100365.00
2022-08-14T04:40:40.597Z,100368.72
2022-08-14T04:43:26.143Z,100363.22
2022-08-14T04:46:10.137Z,100360.13
2022-08-14T04:49:00.077Z,100366.28
2022-08-14T04:51:28.243Z,100362.00
2022-08-14T04:54:00.125Z,100359.06
2022-08-14T04:56:34.200Z,100364.19
2022-08-14T04:59:10.614Z,100361.72
2022-08-14T05:01:47.711Z,100356.13
2022-08-14T05:04:19.906Z,100361.81
2022-08-14T05:06:49.500Z,100363.63
2022-08-14T05:09:21.569Z,100361.25
2022-08-14T05:11:49.822Z,100367.03
2022-08-14T05:14:46.056Z,100367.28
2022-08-14T05:17:12.030Z,100361.34
2022-08-14T05:19:44.555Z,100367.50
2022-08-14T05:22:27.713Z,100364.22
2022-08-14T05:24:55.570Z,100357.84
2022-08-14T05:27:24.061Z,100359.97
2022-08-14T05:29:55.375Z,100348.75
2022-08-14T05:32:28.124Z,100336.13
2022-08-14T05:34:57.870Z,100344.78
2022-08-14T05:37:26.579Z,100346.78
2022-08-14T05:39:54.916Z,100337.75
2022-08-14T05:42:29.215Z,100335.25
2022-08-14T05:44:59.710Z,100325.94
2022-08-14T05:47:39.395Z,100333.06
2022-08-14T05:50:17.238Z,100331.53
2022-08-14T05:52:46.802Z,100325.56
2022-08-14T05:55:15.319Z,100323.88
2022-08-14T05:57:49.111Z,100318.53
2022-08-14T06:00:24.412Z,100318.56
2022-08-14T06:02:56.125Z,100321.16
2022-08-14T06:05:28.995Z,100321.47
2022-08-14T06:07:58.482Z,100319.09
2022-08-14T06:12:58.143Z,100315.44
2022-08-14T06:15:29.910Z,100321.63
2022-08-14T06:18:00.673Z,100325.50
2022-08-14T06:20:30.698Z,100322.59
2022-08-14T06:22:59.487Z,100319.94
2022-08-14T06:25:28.615Z,100321.06
2022-08-14T06:27:58.152Z,100320.78
2022-08-14T06:30:46.289Z,100326.72
2022-08-14T06:33:18.448Z,100321.06
2022-08-14T06:35:47.404Z,100326.75
2022-08-14T06:38:18.062Z,100325.81
2022-08-14T06:40:47.077Z,100320.03
2022-08-14T06:43:15.898Z,100319.09
2022-08-14T06:45:50.244Z,100319.69
2022-08-14T06:48:24.945Z,100315.38
2022-08-14T06:50:54.874Z,100312.91
2022-08-14T06:53:28.001Z,100306.00
2022-08-14T06:56:02.129Z,100300.59
2022-08-14T06:58:32.103Z,100301.59
2022-08-14T07:01:24.873Z,100294.06
2022-08-14T07:04:22.863Z,100297.25
2022-08-14T07:06:55.445Z,100282.75
2022-08-14T07:09:27.965Z,100282.19
2022-08-14T07:11:56.285Z,100265.66
2022-08-14T07:14:25.758Z,100274.56
2022-08-14T07:16:54.331Z,100277.78
2022-08-14T07:19:24.180Z,100274.81
2022-08-14T07:21:52.777Z,100278.03
2022-08-14T07:24:21.815Z,100281.84
2022-08-14T07:26:54.369Z,100276.22
2022-08-14T07:29:26.207Z,100275.94
2022-08-14T07:31:54.977Z,100274.25
2022-08-14T07:34:36.050Z,100272.34
2022-08-14T07:37:05.700Z,100270.44
2022-08-14T07:39:34.579Z,100268.34
2022-08-14T07:42:03.223Z,100263.44
2022-08-14T07:44:35.470Z,100257.78
2022-08-14T07:47:15.773Z,100264.50
2022-08-14T07:49:55.695Z,100254.91
2022-08-14T07:52:30.942Z,100258.69
2022-08-14T07:55:01.472Z,100262.84
2022-08-14T07:57:29.345Z,100262.63
2022-08-14T07:59:57.537Z,100267.97
2022-08-14T08:02:28.990Z,100265.34
2022-08-14T08:05:03.179Z,100264.75
2022-08-14T08:07:32.439Z,100273.50
2022-08-14T08:10:31.370Z,100275.06
2022-08-14T08:13:16.103Z,100267.66
2022-08-14T08:15:46.207Z,100273.47
2022-08-14T08:18:20.188Z,100250.25
2022-08-14T08:20:59.608Z,100265.69
2022-08-14T08:23:34.397Z,100263.06
2022-08-14T08:26:09.033Z,100267.06
2022-08-14T08:28:36.923Z,100261.28
2022-08-14T08:31:06.694Z,100260.22
2022-08-14T08:33:37.883Z,100257.97
2022-08-14T08:36:12.973Z,100256.22
2022-08-14T08:39:17.340Z,100258.81
2022-08-14T08:41:41.383Z,100252.19
2022-08-14T08:44:30.053Z,100255.28
2022-08-14T08:47:01.502Z,100244.03
2022-08-14T08:49:42.214Z,100244.91
2022-08-14T08:52:15.302Z,100238.13
2022-08-14T08:54:56.827Z,100221.34
2022-08-14T08:57:24.960Z,100226.53
2022-08-14T08:59:54.963Z,100227.91
2022-08-14T09:02:25.936Z,100231.56
2022-08-14T09:05:03.327Z,100225.00
2022-08-14T09:07:33.028Z,100234.59
2022-08-14T09:10:01.435Z,100234.69
2022-08-14T09:12:32.515Z,100233.94
2022-08-14T09:15:02.743Z,100239.75
2022-08-14T09:17:30.847Z,100226.56
2022-08-14T09:20:01.927Z,100225.69
2022-08-14T09:22:36.384Z,100212.72
2022-08-14T09:25:10.236Z,100207.91
2022-08-14T09:27:39.726Z,100203.41
2022-08-14T09:30:30.661Z,100208.84
2022-08-14T09:33:12.964Z,100203.09
2022-08-14T09:35:56.496Z,100199.91
2022-08-14T09:38:34.092Z,100194.69
2022-08-14T09:41:11.982Z,100186.69
2022-08-14T09:43:48.771Z,100186.31
2022-08-14T09:46:21.217Z,100181.31
2022-08-14T09:48:59.741Z,100180.69
2022-08-14T09:51:32.601Z,100172.91
2022-08-14T09:54:18.181Z,100182.19
2022-08-14T09:56:59.439Z,100180.06
2022-08-14T09:59:32.130Z,100178.13
2022-08-14T10:02:01.831Z,100172.44
2022-08-14T10:04:33.875Z,100169.50
2022-08-14T10:07:04.845Z,100168.66
2022-08-14T10:09:35.234Z,100164.03
2022-08-14T10:12:05.061Z,100166.75
2022-08-14T10:14:36.937Z,100164.53
2022-08-14T10:17:08.496Z,100156.69
2022-08-14T10:19:48.277Z,100160.66
2022-08-14T10:23:15.492Z,100157.75
2022-08-14T10:25:14.313Z,100151.69
2022-08-14T10:27:46.336Z,100152.38
2022-08-14T10:30:22.848Z,100142.50
2022-08-14T10:32:55.513Z,100141.94
2022-08-14T10:35:31.082Z,100134.78
2022-08-14T10:38:01.780Z,100136.78
2022-08-14T10:40:43.723Z,100134.38
2022-08-14T10:43:23.016Z,100127.38
2022-08-14T10:46:03.390Z,100114.16
2022-08-14T10:48:57.736Z,100114.38
2022-08-14T10:51:27.339Z,100109.50
2022-08-14T10:54:01.836Z,100101.75
2022-08-14T10:56:46.486Z,100119.16
2022-08-14T10:59:14.289Z,100115.78
2022-08-14T11:01:43.054Z,100119.06
2022-08-14T11:04:30.531Z,100108.97
2022-08-14T11:06:59.649Z,100104.78
2022-08-14T11:09:31.758Z,100107.22
2022-08-14T11:12:33.705Z,100099.66
2022-08-14T11:14:59.089Z,100109.19
2022-08-14T11:17:28.604Z,100098.97
2022-08-14T11:20:01.690Z,100093.09
2022-08-14T11:22:56.369Z,100092.91
2022-08-14T11:25:23.397Z,100082.34
2022-08-14T11:27:55.008Z,100075.97
2022-08-14T11:30:50.403Z,100073.66
2022-08-14T11:33:16.386Z,100059.38
2022-08-14T11:35:49.612Z,100059.00
2022-08-14T11:38:21.618Z,100060.44
2022-08-14T11:40:49.813Z,100049.78
2022-08-14T11:43:22.823Z,100049.72
2022-08-14T11:45:58.160Z,100051.00
2022-08-14T11:49:02.526Z,100039.22
2022-08-14T11:51:23.967Z,100037.22
2022-08-14T11:53:54.148Z,100028.38
2022-08-14T11:56:25.370Z,100035.63
2022-08-14T11:58:55.408Z,100026.03
2022-08-14T12:01:28.707Z,100036.00
2022-08-14T12:04:08.748Z,100027.22
2022-08-14T12:06:56.797Z,100027.75
2022-08-14T12:09:32.677Z,100013.91
2022-08-14T12:12:01.257Z,100017.78
2022-08-14T12:14:35.359Z,100014.94
2022-08-14T12:17:12.015Z,100012.03
2022-08-14T12:19:53.711Z,100005.56
2022-08-14T12:22:34.661Z,100003.66
2022-08-14T12:25:06.122Z,100004.19
2022-08-14T12:27:52.481Z,100005.31
2022-08-14T12:30:38.110Z,99998.41
2022-08-14T12:33:22.007Z,99999.69
2022-08-14T12:35:56.405Z,99982.75
2022-08-14T12:38:34.027Z,99969.56
2022-08-14T12:41:06.339Z,99969.56
2022-08-14T12:43:46.282Z,99969.00
2022-08-14T12:46:27.187Z,99963.66
2022-08-14T12:48:56.899Z,99963.44
2022-08-14T12:51:27.530Z,99970.03
2022-08-14T12:53:59.441Z,99956.19
2022-08-14T12:56:34.106Z,99956.31
2022-08-14T12:59:03.390Z,99950.47
2022-08-14T13:01:59.738Z,99942.88
2022-08-14T13:04:23.809Z,99938.81
2022-08-14T13:06:53.827Z,99944.16
2022-08-14T13:09:27.788Z,99935.75
2022-08-14T13:12:31.934Z,99931.06
2022-08-14T13:14:57.819Z,99935.59
2022-08-14T13:17:28.368Z,99922.44
2022-08-14T13:19:58.356Z,99917.94
2022-08-14T13:22:33.490Z,99922.75
2022-08-14T13:25:05.669Z,99907.09
2022-08-14T13:27:38.566Z,99899.16
2022-08-14T13:30:10.737Z,99893.59
2022-08-14T13:32:50.551Z,99895.16
2022-08-14T13:35:19.438Z,99896.22
2022-08-14T13:37:49.638Z,99885.34
2022-08-14T13:40:26.528Z,99888.22
2022-08-14T13:42:57.157Z,99887.34
2022-08-14T13:45:35.068Z,99882.19
2022-08-14T13:48:32.332Z,99880.31
2022-08-14T13:51:04.274Z,99884.72
2022-08-14T13:53:37.970Z,99878.69
2022-08-14T13:56:14.555Z,99883.19
2022-08-14T13:58:47.097Z,99874.31
2022-08-14T14:01:19.035Z,99873.19
2022-08-14T14:03:51.422Z,99869.41
2022-08-14T14:06:24.829Z,99863.94
2022-08-14T14:08:59.025Z,99851.84
2022-08-14T14:11:30.058Z,99857.44
2022-08-14T14:13:59.936Z,99856.81
2022-08-14T14:16:30.681Z,99855.06
2022-08-14T14:19:09.687Z,99858.28
2022-08-14T14:21:40.462Z,99852.38
2022-08-14T14:24:14.951Z,99855.22
2022-08-14T14:26:46.758Z,99847.53
2022-08-14T14:29:15.013Z,99848.72
2022-08-14T14:31:48.408Z,99845.38
2022-08-14T14:34:30.293Z,99833.75
2022-08-14T14:37:02.548Z,99836.50
2022-08-14T14:39:35.170Z,99830.47
2022-08-14T14:42:08.133Z,99837.91
2022-08-14T14:44:41.245Z,99839.19
2022-08-14T14:47:11.852Z,99827.59
2022-08-14T14:49:55.107Z,99834.69
2022-08-14T14:52:27.716Z,99835.50
2022-08-14T14:54:58.249Z,99827.97
2022-08-14T14:57:34.840Z,99823.69
2022-08-14T15:00:06.888Z,99817.28
2022-08-14T15:02:41.221Z,99823.19
2022-08-14T15:05:14.023Z,99816.78
2022-08-14T15:07:42.442Z,99823.25
2022-08-14T15:10:27.658Z,99828.84
2022-08-14T15:13:03.587Z,99825.78
2022-08-14T15:15:32.715Z,99823.91
2022-08-14T15:18:01.538Z,99822.84
2022-08-14T15:20:31.629Z,99815.44
2022-08-14T15:23:11.745Z,99809.50
2022-08-14T15:25:40.782Z,99810.69
2022-08-14T15:28:13.066Z,99813.69
2022-08-14T15:30:50.981Z,99813.19
2022-08-14T15:34:13.392Z,99812.97
2022-08-14T15:36:29.813Z,99811.97
2022-08-14T15:38:58.943Z,99818.78
2022-08-14T15:41:41.244Z,99809.84
2022-08-14T15:44:25.409Z,99798.59
2022-08-14T15:46:54.588Z,99800.50
2022-08-14T15:49:24.218Z,99799.91
2022-08-14T15:51:53.704Z,99803.06
2022-08-14T15:54:21.868Z,99797.03
2022-08-14T15:56:58.370Z,99792.94
2022-08-14T15:59:27.188Z,99793.00
2022-08-14T16:01:55.413Z,99795.03
2022-08-14T16:04:24.163Z,99788.28
2022-08-14T16:06:54.763Z,99785.09
2022-08-14T16:09:23.349Z,99783.00
2022-08-14T16:11:54.008Z,99793.19
2022-08-14T16:14:22.063Z,99793.88
2022-08-14T16:17:00.096Z,99785.63
2022-08-14T16:19:31.569Z,99781.31
2022-08-14T16:22:57.306Z,99788.16
2022-08-14T16:24:59.723Z,99785.03
2022-08-14T16:27:39.456Z,99772.91
2022-08-14T16:30:12.291Z,99783.97
2022-08-14T16:32:55.093Z,99776.94
2022-08-14T16:35:25.115Z,99771.50
2022-08-14T16:37:56.277Z,99772.53
2022-08-14T16:43:04.791Z,99763.34
2022-08-14T16:45:43.690Z,99760.34
2022-08-14T16:48:55.105Z,99755.63
2022-08-14T16:51:01.623Z,99749.22
2022-08-14T16:53:37.261Z,99754.25
2022-08-14T16:56:17.118Z,99750.09
2022-08-14T16:58:50.899Z,99761.75
2022-08-14T17:01:24.917Z,99750.38
2022-08-14T17:03:58.090Z,99745.81
2022-08-14T17:06:43.027Z,99740.31
2022-08-14T17:09:33.157Z,99743.09
2022-08-14T17:12:07.238Z,99736.94
2022-08-14T17:15:10.029Z,99734.91
2022-08-14T17:17:49.938Z,99730.06
2022-08-14T17:20:53.568Z,99736.31
2022-08-14T17:23:15.693Z,99729.78
2022-08-14T17:25:50.812Z,99733.31
2022-08-14T17:28:52.188Z,99726.53
2022-08-14T17:31:09.630Z,99727.91
2022-08-14T17:33:40.930Z,99732.91
2022-08-14T17:36:23.008Z,99729.00
2022-08-14T17:39:02.722Z,99724.34
2022-08-14T17:41:38.978Z,99720.91
2022-08-14T17:44:33.319Z,99725.69
2022-08-14T17:47:04.921Z,99729.56
2022-08-14T17:49:34.686Z,99738.50
2022-08-14T17:52:07.783Z,99738.59
2022-08-14T17:54:47.187Z,99724.22
2022-08-14T17:57:24.401Z,99728.69
2022-08-14T18:00:01.234Z,99729.16
2022-08-14T18:02:35.362Z,99735.56
2022-08-14T18:05:03.498Z,99732.50
2022-08-14T18:08:00.379Z,99731.00
2022-08-14T18:10:52.059Z,99733.47
2022-08-14T18:13:10.889Z,99728.66
2022-08-14T18:15:41.407Z,99726.16
2022-08-14T18:18:13.709Z,99726.16
2022-08-14T18:21:39.967Z,99727.91
2022-08-14T18:23:32.536Z,99735.34
2022-08-14T18:26:37.176Z,99729.63
2022-08-14T18:29:01.788Z,99729.34
2022-08-14T18:31:41.930Z,99729.88
2022-08-14T18:34:32.022Z,99737.78
2022-08-14T18:37:17.048Z,99739.28
2022-08-14T18:40:03.163Z,99729.81
2022-08-14T18:42:57.198Z,99741.41
2022-08-14T18:45:32.392Z,99737.63
2022-08-14T18:48:50.204Z,99735.28
2022-08-14T18:51:45.800Z,99736.13
2022-08-14T18:54:29.701Z,99737.47
2022-08-14T18:57:02.295Z,99736.84
2022-08-14T18:59:35.350Z,99736.53
2022-08-14T19:02:42.582Z,99739.09
2022-08-14T19:05:13.374Z,99735.13
2022-08-14T19:07:43.419Z,99740.09
2022-08-14T19:10:32.018Z,99737.69
2022-08-14T19:13:11.825Z,99742.75
2022-08-14T19:15:43.658Z,99750.16
2022-08-14T19:18:26.194Z,99746.63
2022-08-14T19:20:58.524Z,99743.59
2022-08-14T19:23:42.181Z,99739.22
2022-08-14T19:26:33.649Z,99740.72
2022-08-14T19:29:37.861Z,99743.44
2022-08-14T19:32:39.716Z,99746.28
2022-08-14T19:35:55.228Z,99746.78
2022-08-14T19:39:00.249Z,99745.44
2022-08-14T19:41:32.194Z,99742.56
2022-08-14T19:44:11.511Z,99735.78
2022-08-14T19:47:01.901Z,99725.66
2022-08-14T19:50:24.605Z,99729.00
2022-08-14T19:52:29.872Z,99736.88
2022-08-14T19:55:00.665Z,99734.09
2022-08-14T19:57:31.293Z,99731.56
2022-08-14T20:00:28.566Z,99728.75
2022-08-14T20:03:10.549Z,99734.31
2022-08-14T20:05:45.629Z,99735.09
2022-08-14T20:09:05.806Z,99725.03
2022-08-14T20:11:15.825Z,99734.25
2022-08-14T20:14:09.501Z,99740.28
2022-08-14T20:16:40.781Z,99737.56
2022-08-14T20:19:20.995Z,99742.22
2022-08-14T20:22:04.346Z,99738.94
2022-08-14T20:24:45.104Z,99742.88
2022-08-14T20:27:39.417Z,99732.19
2022-08-14T20:45:23.607Z,99733.72
2022-08-14T20:48:01.228Z,99732.41
2022-08-14T20:50:31.812Z,99739.75
2022-08-14T20:53:00.311Z,99733.81
2022-08-14T20:55:30.532Z,99729.59
2022-08-14T20:58:02.503Z,99736.13
2022-08-14T21:00:52.292Z,99731.06
2022-08-14T21:03:33.259Z,99727.16
2022-08-14T21:06:16.072Z,99726.66
2022-08-14T21:08:48.710Z,99734.91
2022-08-14T21:11:21.895Z,99730.13
2022-08-14T21:14:19.357Z,99724.38
2022-08-14T21:16:58.660Z,99719.47
2022-08-14T21:19:29.270Z,99723.28
2022-08-14T21:22:01.760Z,99713.69
2022-08-14T21:24:39.254Z,99721.00
2022-08-14T21:27:21.930Z,99723.88
2022-08-14T21:29:55.301Z,99726.38
2022-08-14T21:32:36.540Z,99722.72
2022-08-14T21:35:22.888Z,99725.97
2022-08-14T21:37:52.443Z,99726.16
2022-08-14T21:40:41.091Z,99727.75
2022-08-14T21:43:17.440Z,99725.34
2022-08-14T21:45:53.799Z,99731.84
2022-08-14T21:48:25.199Z,99723.81
2022-08-14T21:51:01.502Z,99731.41
2022-08-14T21:53:59.317Z,99731.25
2022-08-14T21:56:37.332Z,99728.16
2022-08-14T21:59:09.435Z,99719.88
2022-08-14T22:02:00.428Z,99725.06
2022-08-14T22:04:34.335Z,99720.56
2022-08-14T22:07:12.575Z,99724.34
2022-08-14T22:09:44.944Z,99726.03
2022-08-14T22:12:58.870Z,99718.97
2022-08-14T22:15:12.461Z,99714.34
2022-08-14T22:17:44.266Z,99724.19
2022-08-14T22:20:16.395Z,99714.13
2022-08-14T22:22:46.395Z,99713.84
2022-08-14T22:25:16.139Z,99717.81
2022-08-14T22:27:56.269Z,99724.38
2022-08-14T22:30:26.376Z,99717.34
2022-08-14T22:32:57.951Z,99716.75
2022-08-14T22:35:27.766Z,99724.94
2022-08-14T22:38:34.579Z,99712.25
2022-08-14T22:41:07.305Z,99710.38
2022-08-14T22:43:36.091Z,99714.84
2022-08-14T22:46:14.462Z,99719.78
2022-08-14T22:48:45.127Z,99710.38
2022-08-14T22:51:14.788Z,99703.28
2022-08-14T22:53:45.169Z,99708.94
2022-08-14T22:58:53.541Z,99699.53
2022-08-14T23:01:55.114Z,99706.66
2022-08-14T23:04:35.801Z,99707.19
2022-08-14T23:07:05.266Z,99699.72
2022-08-14T23:09:38.186Z,99704.53
2022-08-14T23:12:27.999Z,99707.50
2022-08-14T23:14:57.803Z,99705.22
2022-08-14T23:17:27.230Z,99701.00
2022-08-14T23:19:56.375Z,99707.81
2022-08-14T23:22:26.121Z,99699.91
2022-08-14T23:24:57.873Z,99701.09
2022-08-14T23:27:31.965Z,99707.59
2022-08-14T23:30:34.481Z,99706.16
2022-08-14T23:33:03.180Z,99705.56
2022-08-14T23:35:33.165Z,99701.28
2022-08-14T23:38:03.033Z,99691.31
2022-08-14T23:40:32.589Z,99692.47
2022-08-14T23:43:08.222Z,99695.97
2022-08-14T23:45:39.473Z,99705.88
2022-08-14T23:48:12.528Z,99703.13
2022-08-14T23:50:44.315Z,99702.22
2022-08-14T23:53:27.923Z,99708.66
2022-08-14T23:56:00.193Z,99707.81
2022-08-14T23:58:33.093Z,99716.66
